Time;durP1;ratioP1;P1;durP2;ratioP2;P2;SDS_P1;SDS_P2;PMS_P1;PMS_P2;Temp;Humidity;BMP_temperature;BMP_pressure;BME280_temperature;BME280_humidity;BME280_pressure;Samples;Min_cycle;Max_cycle;Signal;HPM_P1;HPM_P2
2023/05/10 00:01:55;;;;;;;;;;;11.20;92.40;;;;;;5093045;28;19911;-85
2023/05/10 00:04:21;;;;;;;;;;;11.10;92.80;;;;;;5092737;28;19991;-85
2023/05/10 00:06:46;;;;;;;;;;;11.10;93.70;;;;;;5092928;28;19966;-86
2023/05/10 00:09:12;;;;;;;;;;;11.00;94.10;;;;;;5092707;28;19908;-85
2023/05/10 00:11:38;;;;;;;;;;;11.00;94.70;;;;;;5092390;28;20414;-85
2023/05/10 00:14:03;;;;;;;;;;;10.90;96.50;;;;;;5093005;28;20292;-85
2023/05/10 00:16:29;;;;;;;;;;;10.90;96.90;;;;;;5091443;28;19912;-85
2023/05/10 00:18:54;;;;;;;;;;;10.90;98.90;;;;;;5092929;28;19930;-85
2023/05/10 00:21:20;;;;;;;;;;;10.80;98.60;;;;;;5092178;28;19917;-86
2023/05/10 00:23:45;;;;;;;;;;;11.00;98.10;;;;;;5092139;28;19946;-86
2023/05/10 00:26:11;;;;;;;;;;;11.00;97.70;;;;;;5092713;28;19999;-84
2023/05/10 00:28:36;;;;;;;;;;;11.10;97.20;;;;;;5092665;28;20011;-86
2023/05/10 00:31:02;;;;;;;;;;;11.10;96.50;;;;;;5090902;28;19939;-84
2023/05/10 00:33:28;;;;;;;;;;;11.20;96.40;;;;;;5092165;28;19911;-85
2023/05/10 00:35:53;;;;;;;;;;;11.20;97.80;;;;;;5092444;28;20003;-86
2023/05/10 00:38:19;;;;;;;;;;;11.20;97.20;;;;;;5093364;28;19916;-86
2023/05/10 00:40:44;;;;;;;;;;;11.20;98.70;;;;;;5092054;28;19943;-85
2023/05/10 00:43:10;;;;;;;;;;;11.20;97.70;;;;;;5091521;28;19920;-84
2023/05/10 00:45:36;;;;;;;;;;;11.10;98.20;;;;;;5091196;28;19911;-86
2023/05/10 00:48:02;;;;;;;;;;;11.10;98.60;;;;;;5091027;28;20329;-84
2023/05/10 00:50:27;;;;;;;;;;;11.00;98.80;;;;;;5092005;28;19911;-86
2023/05/10 00:52:53;;;;;;;;;;;10.90;99.20;;;;;;5091904;28;19915;-85
2023/05/10 00:55:19;;;;;;;;;;;10.90;99.00;;;;;;5093426;28;19908;-85
2023/05/10 00:57:44;;;;;;;;;;;10.90;99.20;;;;;;5091734;28;19910;-85
2023/05/10 01:00:11;;;;;;;;;;;10.90;99.90;;;;;;5091544;28;19904;-85
2023/05/10 01:02:36;;;;;;;;;;;10.80;99.90;;;;;;5091402;28;19930;-86
2023/05/10 01:05:03;;;;;;;;;;;10.70;99.90;;;;;;5092673;28;20002;-83
2023/05/10 01:07:29;;;;;;;;;;;10.60;99.90;;;;;;5092083;28;20351;-86
2023/05/10 01:09:54;;;;;;;;;;;10.50;99.90;;;;;;5092032;28;19904;-86
2023/05/10 01:12:20;;;;;;;;;;;10.50;99.90;;;;;;5091768;28;19904;-85
2023/05/10 01:14:46;;;;;;;;;;;10.50;99.90;;;;;;5091822;28;19927;-86
2023/05/10 01:17:12;;;;;;;;;;;10.50;99.90;;;;;;5091748;28;19912;-86
2023/05/10 01:19:38;;;;;;;;;;;10.40;99.90;;;;;;5092526;28;19911;-85
2023/05/10 01:22:03;;;;;;;;;;;10.50;99.90;;;;;;5092708;28;19916;-86
2023/05/10 01:24:44;;;;;;;;;;;10.40;99.90;;;;;;5090007;28;19908;-86
2023/05/10 01:27:17;;;;;;;;;;;10.40;99.90;;;;;;5091183;28;19997;-85
2023/05/10 01:29:51;;;;;;;;;;;10.40;99.90;;;;;;5094313;28;20041;-85
2023/05/10 01:32:35;;;;;;;;;;;10.50;99.90;;;;;;5095668;28;19911;-86
2023/05/10 01:35:05;;;;;;;;;;;10.50;99.90;;;;;;5095520;28;19904;-85
2023/05/10 01:37:33;;;;;;;;;;;10.50;99.90;;;;;;5095622;28;19974;-86
2023/05/10 01:40:09;;;;;;;;;;;10.50;99.90;;;;;;5095562;28;19908;-86
2023/05/10 01:42:38;;;;;;;;;;;10.50;99.90;;;;;;5096506;28;19919;-85
2023/05/10 01:45:07;;;;;;;;;;;10.50;99.90;;;;;;5096399;28;19993;-86
2023/05/10 01:47:32;;;;;;;;;;;10.50;99.90;;;;;;5095227;28;19911;-86
2023/05/10 01:50:01;;;;;;;;;;;10.50;99.90;;;;;;5096264;28;19927;-86
2023/05/10 01:52:30;;;;;;;;;;;10.40;99.90;;;;;;5095338;28;20434;-86
2023/05/10 01:54:58;;;;;;;;;;;10.40;99.90;;;;;;5095121;28;19904;-85
2023/05/10 01:57:26;;;;;;;;;;;10.40;99.90;;;;;;5096405;28;19904;-85
2023/05/10 01:59:52;;;;;;;;;;;10.30;99.90;;;;;;5095317;28;20560;-85
2023/05/10 02:02:20;;;;;;;;;;;10.30;99.90;;;;;;5095013;28;20261;-85
2023/05/10 02:04:46;;;;;;;;;;;10.30;99.90;;;;;;5094904;28;20383;-86
2023/05/10 02:07:12;;;;;;;;;;;10.30;99.90;;;;;;5094646;28;19912;-85
2023/05/10 02:09:38;;;;;;;;;;;10.40;99.90;;;;;;5094925;28;19904;-86
2023/05/10 02:12:05;;;;;;;;;;;10.30;99.90;;;;;;5094898;28;19904;-85
2023/05/10 02:14:32;;;;;;;;;;;10.40;99.90;;;;;;5094452;28;19937;-86
2023/05/10 02:16:59;;;;;;;;;;;10.40;99.90;;;;;;5095041;28;20368;-86
2023/05/10 02:19:25;;;;;;;;;;;10.40;99.90;;;;;;5094858;28;19973;-86
2023/05/10 02:21:51;;;;;;;;;;;10.40;99.90;;;;;;5094487;28;20283;-85
2023/05/10 02:24:17;;;;;;;;;;;10.40;99.90;;;;;;5094746;28;19914;-85
2023/05/10 02:26:44;;;;;;;;;;;10.40;99.90;;;;;;5094685;28;19954;-85
2023/05/10 02:29:11;;;;;;;;;;;10.50;99.90;;;;;;5094534;28;19908;-86
2023/05/10 02:31:38;;;;;;;;;;;10.50;99.90;;;;;;5094546;28;19961;-85
2023/05/10 02:34:05;;;;;;;;;;;10.50;99.90;;;;;;5094421;28;19904;-86
2023/05/10 02:36:31;;;;;;;;;;;10.60;99.90;;;;;;5094026;28;19904;-86
2023/05/10 02:38:58;;;;;;;;;;;10.60;99.90;;;;;;5094263;28;19911;-86
2023/05/10 02:41:24;;;;;;;;;;;10.60;99.90;;;;;;5094507;28;19911;-86
2023/05/10 02:43:51;;;;;;;;;;;10.70;99.90;;;;;;5094141;28;20654;-86
2023/05/10 02:46:17;;;;;;;;;;;10.70;99.90;;;;;;5094087;28;19908;-85
2023/05/10 02:48:43;;;;;;;;;;;10.70;99.90;;;;;;5094027;28;19915;-85
2023/05/10 02:51:09;;;;;;;;;;;10.70;99.90;;;;;;5094113;28;19904;-86
2023/05/10 02:53:36;;;;;;;;;;;10.70;99.90;;;;;;5093618;28;19947;-86
2023/05/10 02:56:06;;;;;;;;;;;10.70;99.90;;;;;;5093850;28;20383;-86
2023/05/10 02:58:32;;;;;;;;;;;10.70;99.90;;;;;;5093836;28;19912;-86
2023/05/10 03:00:58;;;;;;;;;;;10.70;99.90;;;;;;5093938;28;20283;-85
2023/05/10 03:03:23;;;;;;;;;;;10.70;99.90;;;;;;5093531;28;19965;-85
2023/05/10 03:05:49;;;;;;;;;;;10.80;99.90;;;;;;5092335;28;19908;-85
2023/05/10 03:08:14;;;;;;;;;;;10.80;99.90;;;;;;5093214;28;19904;-85
2023/05/10 03:10:50;;;;;;;;;;;10.80;99.90;;;;;;5094604;28;19904;-85
2023/05/10 03:13:18;;;;;;;;;;;10.80;99.90;;;;;;5092724;28;19904;-85
2023/05/10 03:15:52;;;;;;;;;;;10.80;99.90;;;;;;5092771;28;19947;-84
2023/05/10 03:18:21;;;;;;;;;;;10.80;99.90;;;;;;5092633;28;19960;-85
2023/05/10 03:20:50;;;;;;;;;;;10.80;99.90;;;;;;5092517;28;19960;-85
2023/05/10 03:23:35;;;;;;;;;;;10.80;99.90;;;;;;5092892;28;20065;-85
2023/05/10 03:26:00;;;;;;;;;;;10.70;99.90;;;;;;5092783;28;19971;-84
2023/05/10 03:28:27;;;;;;;;;;;10.70;99.90;;;;;;5094577;28;20275;-85
2023/05/10 03:30:53;;;;;;;;;;;10.60;99.90;;;;;;5092673;28;19953;-85
2023/05/10 03:33:19;;;;;;;;;;;10.60;99.90;;;;;;5092822;28;19911;-84
2023/05/10 03:35:45;;;;;;;;;;;10.50;99.90;;;;;;5092423;28;20300;-84
2023/05/10 03:38:11;;;;;;;;;;;10.50;99.90;;;;;;5092413;28;19907;-85
2023/05/10 03:40:37;;;;;;;;;;;10.40;99.90;;;;;;5091896;28;19907;-84
2023/05/10 03:43:02;;;;;;;;;;;10.30;99.90;;;;;;5092028;28;19912;-84
2023/05/10 03:45:28;;;;;;;;;;;10.20;99.90;;;;;;5091132;28;19908;-84
2023/05/10 03:47:54;;;;;;;;;;;10.10;99.90;;;;;;5089712;28;20024;-84
2023/05/10 03:50:20;;;;;;;;;;;10.00;99.90;;;;;;5091537;28;19908;-84
2023/05/10 03:52:46;;;;;;;;;;;10.00;99.90;;;;;;5092202;28;19908;-84
2023/05/10 03:55:12;;;;;;;;;;;9.90;99.90;;;;;;5092317;28;19959;-83
2023/05/10 03:57:37;;;;;;;;;;;9.90;99.90;;;;;;5091718;28;20351;-83
2023/05/10 04:00:03;;;;;;;;;;;9.80;99.90;;;;;;5092700;28;19958;-83
2023/05/10 04:02:30;;;;;;;;;;;9.80;99.90;;;;;;5091405;28;19923;-84
2023/05/10 04:04:55;;;;;;;;;;;9.80;99.90;;;;;;5091896;28;19943;-84
2023/05/10 04:07:21;;;;;;;;;;;9.80;99.90;;;;;;5092560;28;19951;-84
2023/05/10 04:09:47;;;;;;;;;;;9.80;99.90;;;;;;5092719;28;19908;-84
2023/05/10 04:12:12;;;;;;;;;;;9.90;99.90;;;;;;5091552;28;19990;-84
2023/05/10 04:14:38;;;;;;;;;;;9.80;99.90;;;;;;5091359;28;19904;-84
2023/05/10 04:17:03;;;;;;;;;;;9.90;99.90;;;;;;5092979;28;20287;-84
2023/05/10 04:19:30;;;;;;;;;;;9.90;99.90;;;;;;5091598;28;20287;-82
2023/05/10 04:21:55;;;;;;;;;;;9.90;99.90;;;;;;5091405;28;19941;-84
2023/05/10 04:24:21;;;;;;;;;;;10.00;99.90;;;;;;5091473;28;20002;-85
2023/05/10 04:26:46;;;;;;;;;;;10.00;99.90;;;;;;5089835;28;20391;-84
2023/05/10 04:29:12;;;;;;;;;;;10.10;99.90;;;;;;5091426;28;19935;-84
2023/05/10 04:31:37;;;;;;;;;;;10.10;99.90;;;;;;5092370;28;20274;-84
2023/05/10 04:34:03;;;;;;;;;;;10.20;99.90;;;;;;5092486;28;19936;-85
2023/05/10 04:36:28;;;;;;;;;;;10.20;99.90;;;;;;5091688;28;19908;-83
2023/05/10 04:38:54;;;;;;;;;;;10.20;99.90;;;;;;5091411;28;19918;-84
2023/05/10 04:41:20;;;;;;;;;;;10.20;99.90;;;;;;5091197;28;19998;-85
2023/05/10 04:43:46;;;;;;;;;;;10.20;99.90;;;;;;5091136;28;19908;-84
2023/05/10 04:46:11;;;;;;;;;;;10.20;99.90;;;;;;5091430;28;20395;-84
2023/05/10 04:48:37;;;;;;;;;;;10.30;99.90;;;;;;5090850;28;20368;-83
2023/05/10 04:51:03;;;;;;;;;;;10.30;99.90;;;;;;5091019;28;20367;-84
2023/05/10 04:53:29;;;;;;;;;;;10.30;99.90;;;;;;5092327;28;20296;-84
2023/05/10 04:55:55;;;;;;;;;;;10.30;99.90;;;;;;5090130;28;20344;-84
2023/05/10 04:58:20;;;;;;;;;;;10.40;99.90;;;;;;5090249;28;20356;-84
2023/05/10 05:00:46;;;;;;;;;;;10.40;99.90;;;;;;5091820;28;20317;-84
2023/05/10 05:03:11;;;;;;;;;;;10.40;99.90;;;;;;5095203;28;20426;-84
2023/05/10 05:05:37;;;;;;;;;;;10.40;99.90;;;;;;5096616;28;19904;-82
2023/05/10 05:08:03;;;;;;;;;;;10.40;99.90;;;;;;5095053;28;19904;-84
2023/05/10 05:10:28;;;;;;;;;;;10.30;99.90;;;;;;5094783;28;19913;-84
2023/05/10 05:12:54;;;;;;;;;;;10.20;99.90;;;;;;5095043;28;19908;-84
2023/05/10 05:15:19;;;;;;;;;;;10.20;99.90;;;;;;5094669;28;19953;-83
2023/05/10 05:17:45;;;;;;;;;;;10.10;99.90;;;;;;5094326;28;19908;-84
2023/05/10 05:20:10;;;;;;;;;;;10.10;99.90;;;;;;5094258;28;19918;-83
2023/05/10 05:22:37;;;;;;;;;;;10.00;99.90;;;;;;5094104;28;19920;-84
2023/05/10 05:25:03;;;;;;;;;;;10.10;99.90;;;;;;5094148;28;20360;-83
2023/05/10 05:27:28;;;;;;;;;;;10.10;99.90;;;;;;5094144;28;19953;-84
2023/05/10 05:29:54;;;;;;;;;;;10.10;99.90;;;;;;5093550;28;19908;-83
2023/05/10 05:32:20;;;;;;;;;;;10.20;99.90;;;;;;5094268;28;20006;-83
2023/05/10 05:34:45;;;;;;;;;;;10.30;99.90;;;;;;5093705;28;19915;-82
2023/05/10 05:37:15;;;;;;;;;;;10.50;99.90;;;;;;5093539;28;19911;-84
2023/05/10 05:39:40;;;;;;;;;;;10.70;99.90;;;;;;5094718;28;19934;-83
2023/05/10 05:42:06;;;;;;;;;;;10.80;99.90;;;;;;5093614;28;19919;-83
2023/05/10 05:44:31;;;;;;;;;;;11.00;99.90;;;;;;5093455;28;20380;-84
2023/05/10 05:46:57;;;;;;;;;;;11.20;99.90;;;;;;5093572;28;20044;-83
2023/05/10 05:49:23;;;;;;;;;;;11.40;99.90;;;;;;5093722;28;19908;-84
2023/05/10 05:51:50;;;;;;;;;;;11.70;99.90;;;;;;5093472;28;20268;-83
2023/05/10 05:54:15;;;;;;;;;;;12.10;99.90;;;;;;5093594;28;19904;-84
2023/05/10 05:56:41;;;;;;;;;;;12.50;99.90;;;;;;5093224;28;20443;-84
2023/05/10 05:59:07;;;;;;;;;;;12.80;99.90;;;;;;5094589;28;19904;-84
2023/05/10 06:01:32;;;;;;;;;;;13.00;99.90;;;;;;5093940;28;20004;-83
2023/05/10 06:03:58;;;;;;;;;;;13.20;99.90;;;;;;5093350;28;19908;-84
2023/05/10 06:06:23;;;;;;;;;;;13.50;99.90;;;;;;5093733;28;19908;-83
2023/05/10 06:08:49;;;;;;;;;;;13.50;99.90;;;;;;5091304;28;20005;-84
2023/05/10 06:11:14;;;;;;;;;;;13.50;99.90;;;;;;5093077;28;19910;-84
2023/05/10 06:13:40;;;;;;;;;;;13.40;99.90;;;;;;5094563;28;19915;-84
2023/05/10 06:16:05;;;;;;;;;;;13.40;99.90;;;;;;5093401;28;19911;-85
2023/05/10 06:18:31;;;;;;;;;;;13.30;99.90;;;;;;5093184;28;19904;-84
2023/05/10 06:20:57;;;;;;;;;;;13.30;99.90;;;;;;5093170;28;19912;-84
2023/05/10 06:23:22;;;;;;;;;;;13.30;99.90;;;;;;5092924;28;19942;-84
2023/05/10 06:25:48;;;;;;;;;;;13.20;99.90;;;;;;5093181;28;19908;-83
2023/05/10 06:28:13;;;;;;;;;;;13.10;99.90;;;;;;5094409;28;20432;-83
2023/05/10 06:30:39;;;;;;;;;;;12.80;99.90;;;;;;5092713;28;19915;-84
2023/05/10 06:33:05;;;;;;;;;;;12.70;99.90;;;;;;5092638;28;19947;-83
2023/05/10 06:35:32;;;;;;;;;;;12.70;99.90;;;;;;5092251;28;19939;-85
2023/05/10 06:37:57;;;;;;;;;;;12.70;99.90;;;;;;5093069;28;20353;-85
2023/05/10 06:40:23;;;;;;;;;;;12.70;99.90;;;;;;5093602;28;19912;-84
2023/05/10 06:42:48;;;;;;;;;;;12.80;99.90;;;;;;5092489;28;19916;-83
2023/05/10 06:45:15;;;;;;;;;;;12.90;99.90;;;;;;5092018;28;19908;-84
2023/05/10 06:47:40;;;;;;;;;;;13.10;99.90;;;;;;5092462;28;19911;-84
2023/05/10 06:50:07;;;;;;;;;;;13.60;99.90;;;;;;5091094;28;19904;-84
2023/05/10 06:52:32;;;;;;;;;;;13.90;99.90;;;;;;5091196;28;19916;-84
2023/05/10 06:54:58;;;;;;;;;;;14.40;99.90;;;;;;5091262;28;19911;-83
2023/05/10 06:57:24;;;;;;;;;;;14.70;99.90;;;;;;5092247;28;19915;-84
2023/05/10 06:59:49;;;;;;;;;;;14.80;99.90;;;;;;5092575;28;20269;-84
2023/05/10 07:02:15;;;;;;;;;;;15.10;99.90;;;;;;5090983;28;19911;-85
2023/05/10 07:04:41;;;;;;;;;;;15.20;99.50;;;;;;5091096;28;19908;-83
2023/05/10 07:07:06;;;;;;;;;;;15.10;99.90;;;;;;5091572;28;20383;-83
2023/05/10 07:09:32;;;;;;;;;;;15.10;99.70;;;;;;5092074;28;20417;-85
2023/05/10 07:11:57;;;;;;;;;;;15.00;99.10;;;;;;5092134;28;19904;-84
2023/05/10 07:14:23;;;;;;;;;;;15.00;99.90;;;;;;5091969;28;19908;-83
2023/05/10 07:16:49;;;;;;;;;;;15.00;99.90;;;;;;5093297;28;19949;-85
2023/05/10 07:19:14;;;;;;;;;;;15.10;99.90;;;;;;5091242;28;19907;-84
2023/05/10 07:21:42;;;;;;;;;;;15.10;98.70;;;;;;5091083;28;19919;-83
2023/05/10 07:24:07;;;;;;;;;;;15.30;96.00;;;;;;5090306;28;19919;-83
2023/05/10 07:26:33;;;;;;;;;;;15.40;97.70;;;;;;5091958;28;19908;-85
2023/05/10 07:28:59;;;;;;;;;;;15.90;96.00;;;;;;5092769;28;19943;-85
2023/05/10 07:31:24;;;;;;;;;;;16.00;91.00;;;;;;5090911;28;20364;-85
2023/05/10 07:33:50;;;;;;;;;;;16.20;93.50;;;;;;5092030;28;19908;-84
2023/05/10 07:36:15;;;;;;;;;;;16.60;92.30;;;;;;5091549;28;19956;-84
2023/05/10 07:38:41;;;;;;;;;;;16.90;90.60;;;;;;5091348;28;19926;-84
2023/05/10 07:41:06;;;;;;;;;;;16.90;89.90;;;;;;5089810;28;20368;-84
2023/05/10 07:43:32;;;;;;;;;;;16.90;89.40;;;;;;5090164;28;19916;-84
2023/05/10 07:45:59;;;;;;;;;;;17.10;92.40;;;;;;5092073;28;19951;-84
2023/05/10 07:48:25;;;;;;;;;;;17.50;88.70;;;;;;5091570;28;19957;-84
2023/05/10 07:50:50;;;;;;;;;;;17.50;85.90;;;;;;5092024;28;19907;-85
2023/05/10 07:53:16;;;;;;;;;;;17.50;83.50;;;;;;5090427;28;19910;-85
2023/05/10 07:55:42;;;;;;;;;;;17.30;84.40;;;;;;5091359;28;20487;-85
2023/05/10 07:58:07;;;;;;;;;;;17.40;87.00;;;;;;5092765;28;20265;-85
2023/05/10 08:00:33;;;;;;;;;;;17.40;87.10;;;;;;5091678;28;19908;-84
2023/05/10 08:02:59;;;;;;;;;;;17.40;82.90;;;;;;5091728;28;19912;-85
2023/05/10 08:05:24;;;;;;;;;;;17.40;86.50;;;;;;5090612;28;20466;-83
2023/05/10 08:07:50;;;;;;;;;;;17.30;88.70;;;;;;5091571;28;20396;-84
2023/05/10 08:10:16;;;;;;;;;;;17.50;88.80;;;;;;5091505;28;19994;-84
2023/05/10 08:12:42;;;;;;;;;;;17.70;80.60;;;;;;5089071;28;19904;-81
2023/05/10 08:15:08;;;;;;;;;;;17.80;80.40;;;;;;5090086;28;20330;-83
2023/05/10 08:17:33;;;;;;;;;;;18.10;78.90;;;;;;5090423;28;20388;-82
2023/05/10 08:19:59;;;;;;;;;;;18.00;81.50;;;;;;5089869;28;19915;-82
2023/05/10 08:22:24;;;;;;;;;;;18.30;75.00;;;;;;5090873;28;19920;-81
2023/05/10 08:24:50;;;;;;;;;;;18.50;76.60;;;;;;5089241;28;20281;-82
2023/05/10 08:27:15;;;;;;;;;;;18.50;75.60;;;;;;5091903;28;20315;-83
2023/05/10 08:29:41;;;;;;;;;;;18.30;73.50;;;;;;5089296;28;19908;-83
2023/05/10 08:32:06;;;;;;;;;;;18.40;73.20;;;;;;5089469;28;19926;-82
2023/05/10 08:34:32;;;;;;;;;;;18.30;72.20;;;;;;5091294;28;19904;-81
2023/05/10 08:36:57;;;;;;;;;;;18.10;72.90;;;;;;5089849;28;19918;-83
2023/05/10 08:39:23;;;;;;;;;;;18.20;75.50;;;;;;5091491;28;19911;-83
2023/05/10 08:41:50;;;;;;;;;;;17.90;72.60;;;;;;5089885;28;20342;-82
2023/05/10 08:44:18;;;;;;;;;;;17.90;74.00;;;;;;5091196;28;20007;-83
2023/05/10 08:46:45;;;;;;;;;;;18.00;72.40;;;;;;5090105;28;19908;-82
2023/05/10 08:49:12;;;;;;;;;;;18.00;74.30;;;;;;5091294;28;19912;-82
2023/05/10 08:51:40;;;;;;;;;;;18.20;75.50;;;;;;5090058;28;19962;-83
2023/05/10 08:54:06;;;;;;;;;;;18.10;73.70;;;;;;5090738;28;19960;-82
2023/05/10 08:56:31;;;;;;;;;;;18.20;76.70;;;;;;5089564;28;20339;-82
2023/05/10 08:58:57;;;;;;;;;;;18.30;75.70;;;;;;5089696;28;19970;-82
2023/05/10 09:01:23;;;;;;;;;;;18.40;74.10;;;;;;5091259;28;19904;-83
2023/05/10 09:03:49;;;;;;;;;;;18.90;70.90;;;;;;5089661;28;20362;-83
2023/05/10 09:06:15;;;;;;;;;;;19.20;70.70;;;;;;5091361;28;19962;-82
2023/05/10 09:08:41;;;;;;;;;;;19.50;70.80;;;;;;5090419;28;19904;-83
2023/05/10 09:11:07;;;;;;;;;;;19.80;70.30;;;;;;5089407;28;19904;-83
2023/05/10 09:13:33;;;;;;;;;;;20.80;64.20;;;;;;5088979;28;19904;-81
2023/05/10 09:15:59;;;;;;;;;;;21.40;61.90;;;;;;5088870;28;19915;-83
2023/05/10 09:18:25;;;;;;;;;;;21.60;58.20;;;;;;5089436;28;19911;-84
2023/05/10 09:20:50;;;;;;;;;;;21.30;59.10;;;;;;5089197;28;20042;-83
2023/05/10 09:23:16;;;;;;;;;;;21.20;57.80;;;;;;5089257;28;19919;-82
2023/05/10 09:25:42;;;;;;;;;;;21.30;58.20;;;;;;5089333;28;19908;-84
2023/05/10 09:28:08;;;;;;;;;;;21.60;54.50;;;;;;5088584;28;19904;-83
2023/05/10 09:30:34;;;;;;;;;;;21.10;54.50;;;;;;5089304;28;19957;-84
2023/05/10 09:33:00;;;;;;;;;;;20.50;56.20;;;;;;5091202;28;19911;-83
2023/05/10 09:35:26;;;;;;;;;;;20.10;58.10;;;;;;5089060;28;20071;-83
2023/05/10 09:37:56;;;;;;;;;;;19.90;60.50;;;;;;5089378;28;19915;-82
2023/05/10 09:40:22;;;;;;;;;;;19.70;58.90;;;;;;5088849;28;19954;-82
2023/05/10 09:42:54;;;;;;;;;;;20.00;59.00;;;;;;5088226;28;19927;-83
2023/05/10 09:45:20;;;;;;;;;;;20.00;59.40;;;;;;5088810;28;20287;-83
2023/05/10 09:47:46;;;;;;;;;;;19.70;59.50;;;;;;5091942;28;19904;-82
2023/05/10 09:50:11;;;;;;;;;;;19.90;60.90;;;;;;5093606;28;19942;-84
2023/05/10 09:52:47;;;;;;;;;;;20.60;57.90;;;;;;5092232;28;20355;-83
2023/05/10 09:55:13;;;;;;;;;;;20.60;57.40;;;;;;5093006;28;19904;-83
2023/05/10 09:57:38;;;;;;;;;;;20.00;57.00;;;;;;5092376;28;20291;-82
2023/05/10 10:00:04;;;;;;;;;;;19.50;58.10;;;;;;5094120;28;20396;-84
2023/05/10 10:02:30;;;;;;;;;;;19.90;57.90;;;;;;5092005;28;19915;-84
2023/05/10 10:04:56;;;;;;;;;;;20.30;59.10;;;;;;5092125;28;20399;-84
2023/05/10 10:07:23;;;;;;;;;;;20.50;58.80;;;;;;5092040;28;19942;-83
2023/05/10 10:09:48;;;;;;;;;;;20.50;56.30;;;;;;5091745;28;19961;-83
2023/05/10 10:12:14;;;;;;;;;;;20.40;57.60;;;;;;5092950;28;19911;-83
2023/05/10 10:14:39;;;;;;;;;;;20.30;57.60;;;;;;5091892;28;20011;-83
2023/05/10 10:17:05;;;;;;;;;;;20.00;57.90;;;;;;5091847;28;19904;-82
2023/05/10 10:19:32;;;;;;;;;;;19.80;57.60;;;;;;5091624;28;19908;-82
2023/05/10 10:21:58;;;;;;;;;;;19.60;57.90;;;;;;5091634;28;19982;-83
2023/05/10 10:24:24;;;;;;;;;;;19.50;59.20;;;;;;5093063;28;19989;-83
2023/05/10 10:26:52;;;;;;;;;;;19.60;59.20;;;;;;5091618;28;20384;-84
2023/05/10 10:29:21;;;;;;;;;;;19.70;56.70;;;;;;5091647;28;19912;-82
2023/05/10 10:31:56;;;;;;;;;;;19.40;58.80;;;;;;5091679;28;19953;-82
2023/05/10 10:34:21;;;;;;;;;;;19.10;58.40;;;;;;5091341;28;19951;-82
2023/05/10 10:36:47;;;;;;;;;;;18.80;61.70;;;;;;5091655;28;19931;-83
2023/05/10 10:39:14;;;;;;;;;;;18.80;59.60;;;;;;5093096;28;19908;-83
2023/05/10 10:41:44;;;;;;;;;;;18.40;61.40;;;;;;5091861;28;19904;-82
2023/05/10 10:44:41;;;;;;;;;;;18.60;64.70;;;;;;5091421;28;19974;-84
2023/05/10 10:47:24;;;;;;;;;;;18.70;61.80;;;;;;5084003;28;19908;-84
2023/05/10 10:49:51;;;;;;;;;;;18.60;63.80;;;;;;5090788;28;19962;-83
2023/05/10 10:52:20;;;;;;;;;;;18.70;63.60;;;;;;5090741;28;19914;-84
2023/05/10 10:54:57;;;;;;;;;;;18.80;64.50;;;;;;5092618;28;19904;-82
2023/05/10 10:57:23;;;;;;;;;;;18.70;63.70;;;;;;5092040;28;19953;-84
2023/05/10 10:59:49;;;;;;;;;;;18.80;65.40;;;;;;5090706;28;19912;-83
2023/05/10 11:02:32;;;;;;;;;;;19.00;62.60;;;;;;5091313;28;20400;-83
2023/05/10 11:04:58;;;;;;;;;;;18.90;62.80;;;;;;5090815;28;19908;-84
2023/05/10 11:07:24;;;;;;;;;;;18.80;64.70;;;;;;5091107;28;19987;-82
2023/05/10 11:09:49;;;;;;;;;;;18.80;61.70;;;;;;5090985;28;20259;-83
2023/05/10 11:12:15;;;;;;;;;;;18.90;60.40;;;;;;5090782;28;19904;-83
2023/05/10 11:14:41;;;;;;;;;;;18.90;64.10;;;;;;5090981;28;19908;-83
2023/05/10 11:17:22;;;;;;;;;;;19.00;58.30;;;;;;5091685;28;19904;-83
2023/05/10 11:20:06;;;;;;;;;;;19.00;59.20;;;;;;5091569;28;20009;-84
2023/05/10 11:22:48;;;;;;;;;;;19.30;60.00;;;;;;5090449;28;19927;-81
2023/05/10 11:25:14;;;;;;;;;;;19.60;59.30;;;;;;5091047;28;19908;-84
2023/05/10 11:27:39;;;;;;;;;;;19.50;59.90;;;;;;5091998;28;19915;-83
2023/05/10 11:30:06;;;;;;;;;;;19.60;59.30;;;;;;5090444;28;19908;-82
2023/05/10 11:32:32;;;;;;;;;;;19.60;60.10;;;;;;5090280;28;19911;-84
2023/05/10 11:34:57;;;;;;;;;;;19.80;57.40;;;;;;5091762;28;19949;-82
2023/05/10 11:37:23;;;;;;;;;;;19.90;58.00;;;;;;5090175;28;19912;-83
2023/05/10 11:39:48;;;;;;;;;;;19.70;57.00;;;;;;5091109;28;19953;-84
2023/05/10 11:42:14;;;;;;;;;;;19.40;58.00;;;;;;5090125;28;19912;-84
2023/05/10 11:44:40;;;;;;;;;;;19.20;58.60;;;;;;5091553;28;19919;-83
2023/05/10 11:47:06;;;;;;;;;;;19.20;59.00;;;;;;5091143;28;19908;-83
2023/05/10 11:49:32;;;;;;;;;;;19.20;59.40;;;;;;5090469;28;19908;-83
2023/05/10 11:52:07;;;;;;;;;;;19.20;56.60;;;;;;5090727;28;19965;-84
2023/05/10 11:54:34;;;;;;;;;;;19.20;56.00;;;;;;5091522;28;19966;-82
2023/05/10 11:57:00;;;;;;;;;;;19.00;57.20;;;;;;5090959;28;19911;-84
2023/05/10 11:59:25;;;;;;;;;;;19.00;58.10;;;;;;5090550;28;20268;-85
2023/05/10 12:01:51;;;;;;;;;;;19.00;58.20;;;;;;5090569;28;19974;-84
2023/05/10 12:04:17;;;;;;;;;;;19.00;56.20;;;;;;5092465;28;19907;-84
2023/05/10 12:06:42;;;;;;;;;;;19.00;55.60;;;;;;5092480;28;19904;-83
2023/05/10 12:09:08;;;;;;;;;;;19.00;55.60;;;;;;5092481;28;19904;-84
2023/05/10 12:11:37;;;;;;;;;;;18.90;56.60;;;;;;5090858;28;19943;-84
2023/05/10 12:14:04;;;;;;;;;;;18.90;55.40;;;;;;5091559;28;20003;-83
2023/05/10 12:16:30;;;;;;;;;;;18.90;55.90;;;;;;5090231;28;19912;-84
2023/05/10 12:18:57;;;;;;;;;;;18.90;56.90;;;;;;5090372;28;19904;-85
2023/05/10 12:21:22;;;;;;;;;;;18.90;57.00;;;;;;5091210;28;19912;-84
2023/05/10 12:23:52;;;;;;;;;;;18.90;58.20;;;;;;5091355;28;20348;-84
2023/05/10 12:26:18;;;;;;;;;;;19.10;56.40;;;;;;5091761;28;19904;-83
2023/05/10 12:28:44;;;;;;;;;;;19.10;54.90;;;;;;5091255;28;19904;-84
2023/05/10 12:31:10;;;;;;;;;;;19.10;55.90;;;;;;5092239;28;19904;-84
2023/05/10 12:33:38;;;;;;;;;;;19.30;56.80;;;;;;5091734;28;20383;-84
2023/05/10 12:36:04;;;;;;;;;;;19.40;56.90;;;;;;5089935;28;19904;-83
2023/05/10 12:38:34;;;;;;;;;;;19.50;56.90;;;;;;5089584;28;19977;-84
2023/05/10 12:41:01;;;;;;;;;;;19.40;57.30;;;;;;5089862;28;20383;-84
2023/05/10 12:43:26;;;;;;;;;;;19.30;56.70;;;;;;5089289;28;19912;-83
2023/05/10 12:45:52;;;;;;;;;;;19.20;57.10;;;;;;5091240;28;19908;-83
2023/05/10 12:48:18;;;;;;;;;;;19.30;58.20;;;;;;5089669;28;19908;-85
2023/05/10 12:50:44;;;;;;;;;;;19.30;57.90;;;;;;5091021;28;19904;-84
2023/05/10 12:53:09;;;;;;;;;;;19.50;58.20;;;;;;5091081;28;19912;-83
2023/05/10 12:55:35;;;;;;;;;;;19.80;60.20;;;;;;5089781;28;19915;-83
2023/05/10 12:58:00;;;;;;;;;;;19.90;57.80;;;;;;5089285;28;20379;-83
2023/05/10 13:00:26;;;;;;;;;;;19.90;59.70;;;;;;5088996;28;20338;-83
2023/05/10 13:02:52;;;;;;;;;;;19.90;59.30;;;;;;5090500;28;19923;-83
2023/05/10 13:05:17;;;;;;;;;;;20.00;59.80;;;;;;5089772;28;20356;-84
2023/05/10 13:07:43;;;;;;;;;;;20.00;58.10;;;;;;5089344;28;20002;-84
2023/05/10 13:10:09;;;;;;;;;;;20.00;56.60;;;;;;5089917;28;19911;-85
2023/05/10 13:12:35;;;;;;;;;;;20.10;58.50;;;;;;5088588;28;19922;-84
2023/05/10 13:15:01;;;;;;;;;;;20.30;56.70;;;;;;5089941;28;19908;-84
2023/05/10 13:17:27;;;;;;;;;;;20.20;55.10;;;;;;5089308;28;20339;-84
2023/05/10 13:19:52;;;;;;;;;;;19.90;57.50;;;;;;5089325;28;19919;-85
2023/05/10 13:22:18;;;;;;;;;;;19.70;58.30;;;;;;5089876;28;19924;-83
2023/05/10 13:24:43;;;;;;;;;;;19.60;58.30;;;;;;5093517;28;19914;-84
2023/05/10 13:27:09;;;;;;;;;;;19.50;58.70;;;;;;5093814;28;19912;-84
2023/05/10 13:29:34;;;;;;;;;;;19.30;60.20;;;;;;5094536;28;19961;-85
2023/05/10 13:32:00;;;;;;;;;;;19.20;58.50;;;;;;5093765;28;19999;-83
2023/05/10 13:34:26;;;;;;;;;;;18.90;58.30;;;;;;5093542;28;20090;-83
2023/05/10 13:36:53;;;;;;;;;;;18.80;58.80;;;;;;5092767;28;20356;-83
2023/05/10 13:39:19;;;;;;;;;;;18.60;58.10;;;;;;5093269;28;20284;-84
2023/05/10 13:41:45;;;;;;;;;;;18.50;59.40;;;;;;5093924;28;19911;-82
2023/05/10 13:44:12;;;;;;;;;;;18.30;60.60;;;;;;5095326;28;19908;-84
2023/05/10 13:46:38;;;;;;;;;;;18.30;62.30;;;;;;5093951;28;19908;-84
2023/05/10 13:49:03;;;;;;;;;;;18.40;61.90;;;;;;5093984;28;20347;-83
2023/05/10 13:51:29;;;;;;;;;;;18.30;63.00;;;;;;5094045;28;19911;-84
2023/05/10 13:53:54;;;;;;;;;;;18.30;63.40;;;;;;5095376;28;20061;-85
2023/05/10 13:56:20;;;;;;;;;;;18.50;63.30;;;;;;5096090;28;19939;-83
2023/05/10 13:58:46;;;;;;;;;;;18.50;60.70;;;;;;5094050;28;20340;-82
2023/05/10 14:01:12;;;;;;;;;;;18.30;60.70;;;;;;5093217;28;19912;-83
2023/05/10 14:03:37;;;;;;;;;;;18.20;61.40;;;;;;5092817;28;20437;-84
2023/05/10 14:06:03;;;;;;;;;;;18.30;61.60;;;;;;5092639;28;19951;-83
2023/05/10 14:08:28;;;;;;;;;;;18.50;58.60;;;;;;5091778;28;19908;-84
2023/05/10 14:10:56;;;;;;;;;;;18.50;58.00;;;;;;5092319;28;20376;-83
2023/05/10 14:13:21;;;;;;;;;;;18.50;58.50;;;;;;5093276;28;19904;-84
2023/05/10 14:15:47;;;;;;;;;;;18.50;58.50;;;;;;5093758;28;20326;-83